Time;durP1;ratioP1;P1;durP2;ratioP2;P2;SDS_P1;SDS_P2;PMS_P1;PMS_P2;Temp;Humidity;BMP_temperature;BMP_pressure;BME280_temperature;BME280_humidity;BME280_pressure;Samples;Min_cycle;Max_cycle;Signal;HPM_P1;HPM_P2
2022/09/22 00:00:05;;;;;;;947.08;883.20;;;;;;;13.73;64.39;102062.63;695674;28;23472;-62
2022/09/22 00:00:27;;;;;;;958.33;893.92;;;;;;;13.72;64.47;102055.50;693165;28;92378;-63
2022/09/22 00:00:59;;;;;;;948.22;884.22;;;;;;;13.72;64.71;102056.34;696386;28;22330;-63
2022/09/22 00:01:21;;;;;;;945.63;881.83;;;;;;;13.73;64.57;102051.75;691573;28;137664;-60
2022/09/22 00:01:43;;;;;;;951.10;887.10;;;;;;;13.72;64.78;102055.50;694048;28;67463;-60
2022/09/22 00:02:05;;;;;;;945.28;881.45;;;;;;;13.73;64.68;102059.91;695484;28;46344;-60
2022/09/22 00:02:26;;;;;;;951.80;887.72;;;;;;;13.73;64.56;102054.47;695319;28;21566;-63
2022/09/22 00:02:47;;;;;;;946.95;882.97;;;;;;;13.73;64.81;102057.19;694812;28;46463;-60
2022/09/22 00:03:09;;;;;;;948.45;884.47;;;;;;;13.72;64.89;102048.22;695779;28;21539;-63
2022/09/22 00:03:31;;;;;;;950.70;886.63;;;;;;;13.74;64.87;102056.19;695651;28;22407;-62
2022/09/22 00:03:54;;;;;;;951.88;887.85;;;;;;;13.74;64.65;102050.75;694137;28;67470;-59
2022/09/22 00:04:15;;;;;;;947.72;883.83;;;;;;;13.73;64.92;102058.06;693875;28;69438;-60
2022/09/22 00:04:36;;;;;;;930.50;867.08;;;;;;;13.72;64.82;102053.63;695741;28;22372;-61
2022/09/22 00:04:58;;;;;;;937.42;873.78;;;;;;;13.69;64.88;102049.38;695459;28;22801;-59
2022/09/22 00:05:22;;;;;;;959.53;895.20;;;;;;;13.71;64.71;102057.34;694801;28;45241;-60
2022/09/22 00:05:45;;;;;;;955.17;890.97;;;;;;;13.72;64.61;102050.09;692415;28;114394;-62
2022/09/22 00:06:08;;;;;;;958.15;893.97;;;;;;;13.71;64.64;102049.22;694917;28;46301;-62
2022/09/22 00:06:32;;;;;;;954.15;890.08;;;;;;;13.69;64.90;102052.09;693810;28;67484;-63
2022/09/22 00:06:56;;;;;;;948.25;884.33;;;;;;;13.70;64.70;102058.41;692107;28;92299;-61
2022/09/22 00:07:17;;;;;;;947.17;883.13;;;;;;;13.69;64.89;102052.09;692920;28;92219;-62
2022/09/22 00:07:39;;;;;;;950.75;886.85;;;;;;;13.69;64.94;102054.81;695669;28;21537;-62
2022/09/22 00:08:00;;;;;;;957.97;893.88;;;;;;;13.69;65.04;102043.09;694864;28;45048;-63
2022/09/22 00:08:22;;;;;;;943.13;879.55;;;;;;;13.70;64.81;102048.38;695750;28;22416;-62
2022/09/22 00:08:46;;;;;;;945.13;881.15;;;;;;;13.68;64.84;102044.13;694501;28;46434;-61
2022/09/22 00:09:09;;;;;;;953.25;889.22;;;;;;;13.70;65.13;102052.97;693254;28;92264;-59
2022/09/22 00:09:30;;;;;;;942.83;879.15;;;;;;;13.70;64.89;102050.25;693942;28;68319;-62
2022/09/22 00:09:52;;;;;;;941.55;877.90;;;;;;;13.69;65.01;102043.94;695661;28;21499;-61
2022/09/22 00:10:14;;;;;;;956.13;892.00;;;;;;;13.69;64.92;102053.97;694830;28;46284;-63
2022/09/22 00:10:35;;;;;;;959.85;895.55;;;;;;;13.69;64.84;102054.81;694665;28;43934;-62
2022/09/22 00:11:05;;;;;;;956.65;892.45;;;;;;;13.69;65.12;102048.53;695306;28;21542;-63
2022/09/22 00:11:29;;;;;;;948.83;884.92;;;;;;;13.70;64.80;102045.66;688619;28;137727;-63
2022/09/22 00:11:52;;;;;;;945.35;881.50;;;;;;;13.65;65.40;102036.28;689241;28;93018;-62
2022/09/22 00:12:13;;;;;;;951.72;887.67;;;;;;;13.69;65.22;102041.22;691363;28;90687;-62
2022/09/22 00:12:35;;;;;;;952.60;888.55;;;;;;;13.71;65.03;102051.94;694431;28;21531;-60
2022/09/22 00:12:57;;;;;;;956.95;892.65;;;;;;;13.72;65.26;102047.38;692056;28;44913;-62
2022/09/22 00:13:19;;;;;;;959.50;895.22;;;;;;;13.72;65.04;102050.91;692816;28;22382;-62
2022/09/22 00:13:42;;;;;;;960.00;895.83;;;;;;;13.71;64.95;102054.63;692159;28;45246;-62
2022/09/22 00:14:05;;;;;;;963.95;899.65;;;;;;;13.70;64.89;102045.66;691263;28;69464;-63
2022/09/22 00:14:28;;;;;;;941.88;878.28;;;;;;;13.69;65.07;102052.09;690382;28;92892;-63
2022/09/22 00:14:49;;;;;;;940.15;876.63;;;;;;;13.67;65.19;102042.44;691158;28;69415;-63
2022/09/22 00:15:10;;;;;;;936.17;872.83;;;;;;;13.68;65.25;102044.13;692935;28;22418;-63
2022/09/22 00:15:32;;;;;;;944.58;880.95;;;;;;;13.69;65.15;102043.94;692793;28;24306;-62
2022/09/22 00:15:53;;;;;;;952.10;888.28;;;;;;;13.70;65.07;102047.53;692954;28;23411;-63
2022/09/22 00:16:14;;;;;;;937.58;874.05;;;;;;;13.69;65.00;102041.22;695252;28;22411;-63
2022/09/22 00:16:39;;;;;;;934.85;871.40;;;;;;;13.67;64.49;102045.16;692071;28;46687;-63
2022/09/22 00:17:00;;;;;;;940.85;876.95;;;;;;;13.64;65.12;102038.16;688570;28;107325;-62
2022/09/22 00:17:22;;;;;;;950.10;885.90;;;;;;;13.69;65.28;102043.94;691926;28;46308;-63
2022/09/22 00:17:43;;;;;;;940.78;877.10;;;;;;;13.69;64.91;102043.94;692755;28;23493;-62
2022/09/22 00:18:05;;;;;;;947.30;883.50;;;;;;;13.69;65.02;102043.94;692003;28;46286;-62
2022/09/22 00:18:30;;;;;;;942.13;878.40;;;;;;;13.71;64.88;102049.22;691974;28;36309;-63
2022/09/22 00:18:51;;;;;;;942.50;878.78;;;;;;;13.71;65.22;102043.78;691726;28;46152;-62
2022/09/22 00:19:14;;;;;;;947.42;883.50;;;;;;;13.72;64.98;102041.94;692629;28;23453;-62
2022/09/22 00:19:37;;;;;;;943.22;879.45;;;;;;;13.72;65.21;102047.38;691065;28;69401;-63
2022/09/22 00:19:59;;;;;;;940.40;876.75;;;;;;;13.72;64.85;102047.38;691119;28;69307;-63
2022/09/22 00:20:20;;;;;;;937.80;874.22;;;;;;;13.70;64.97;102044.81;692107;28;44323;-63
2022/09/22 00:20:45;;;;;;;941.60;877.85;;;;;;;13.71;64.80;102046.50;693182;28;13700;-63
2022/09/22 00:21:08;;;;;;;942.10;878.38;;;;;;;13.72;64.83;102050.09;694520;28;46398;-62
2022/09/22 00:21:30;;;;;;;949.20;885.28;;;;;;;13.70;65.01;102042.94;691246;28;67482;-62
2022/09/22 00:21:51;;;;;;;952.15;888.10;;;;;;;13.72;64.85;102044.66;691378;28;46336;-63
2022/09/22 00:22:12;;;;;;;941.10;877.42;;;;;;;13.71;64.91;102051.94;692941;28;22469;-63
2022/09/22 00:22:33;;;;;;;942.83;878.97;;;;;;;13.71;64.75;102043.78;692858;28;23252;-63
2022/09/22 00:22:56;;;;;;;946.05;882.20;;;;;;;13.69;65.04;102040.38;692853;28;22282;-63
2022/09/22 00:23:17;;;;;;;941.72;878.05;;;;;;;13.72;65.06;102044.66;691097;28;69417;-62
2022/09/22 00:23:39;;;;;;;942.95;879.08;;;;;;;13.72;64.98;102050.09;692826;28;22178;-62
2022/09/22 00:24:01;;;;;;;942.05;878.15;;;;;;;13.70;65.19;102040.22;691951;28;44137;-62
2022/09/22 00:24:25;;;;;;;946.97;883.05;;;;;;;13.70;65.15;102047.53;691799;28;45173;-63
2022/09/22 00:24:46;;;;;;;941.67;877.85;;;;;;;13.70;65.18;102044.81;690275;28;92243;-63
2022/09/22 00:25:09;;;;;;;939.03;875.33;;;;;;;13.69;65.31;102045.81;692492;28;23495;-63
2022/09/22 00:25:30;;;;;;;940.72;876.97;;;;;;;13.70;65.15;102047.53;690941;28;69318;-63
2022/09/22 00:25:51;;;;;;;947.15;883.17;;;;;;;13.69;65.17;102043.94;693717;28;23471;-63
2022/09/22 00:26:15;;;;;;;943.10;879.33;;;;;;;13.69;65.18;102049.38;695650;28;22483;-63
2022/09/22 00:26:37;;;;;;;944.92;881.08;;;;;;;13.69;64.99;102046.66;693154;28;92448;-62
2022/09/22 00:26:58;;;;;;;946.42;882.22;;;;;;;13.70;64.97;102042.94;693630;28;46295;-63
2022/09/22 00:27:19;;;;;;;952.95;888.50;;;;;;;13.70;65.13;102051.09;695267;28;23446;-63
2022/09/22 00:27:40;;;;;;;948.45;884.38;;;;;;;13.70;65.25;102045.66;694457;28;46241;-63
2022/09/22 00:28:03;;;;;;;940.15;876.47;;;;;;;13.70;65.28;102044.81;695670;28;23441;-63
2022/09/22 00:28:25;;;;;;;943.10;879.42;;;;;;;13.72;65.23;102041.94;694668;28;46313;-62
2022/09/22 00:28:47;;;;;;;947.80;884.00;;;;;;;13.72;65.23;102050.09;694707;28;45272;-62
2022/09/22 00:29:09;;;;;;;940.22;876.78;;;;;;;13.68;65.05;102038.69;694004;28;69146;-63
2022/09/22 00:29:32;;;;;;;937.03;873.55;;;;;;;13.72;65.18;102044.66;694695;28;46458;-62
2022/09/22 00:29:53;;;;;;;943.25;879.58;;;;;;;13.72;65.47;102044.66;694752;28;46205;-62
2022/09/22 00:30:14;;;;;;;939.65;876.13;;;;;;;13.73;65.05;102046.34;695615;28;20458;-62
2022/09/22 00:30:39;;;;;;;935.75;872.22;;;;;;;13.72;65.11;102042.78;695528;28;22445;-62
2022/09/22 00:31:04;;;;;;;934.25;870.65;;;;;;;13.72;65.17;102040.06;692403;28;113536;-62
2022/09/22 00:31:26;;;;;;;942.28;878.47;;;;;;;13.67;65.30;102037.84;693014;28;90094;-62
2022/09/22 00:31:47;;;;;;;952.88;888.67;;;;;;;13.72;65.20;102039.22;694764;28;44384;-62
2022/09/22 00:32:08;;;;;;;949.47;885.40;;;;;;;13.69;64.92;102035.81;696905;28;41316;-62
2022/09/22 00:32:29;;;;;;;950.13;886.10;;;;;;;13.72;64.91;102042.78;696946;28;45209;-62
2022/09/22 00:32:51;;;;;;;940.58;876.75;;;;;;;13.73;65.08;102041.78;697847;28;22519;-61
2022/09/22 00:33:22;;;;;;;950.33;886.30;;;;;;;13.74;65.00;102039.91;696682;28;60463;-63
2022/09/22 00:33:45;;;;;;;954.17;889.93;;;;;;;13.73;65.29;102041.78;698043;28;23497;-62
2022/09/22 00:34:07;;;;;;;941.60;877.90;;;;;;;13.74;65.05;102039.91;696634;28;67509;-61
2022/09/22 00:34:29;;;;;;;939.90;876.10;;;;;;;13.72;65.27;102042.78;697461;28;44452;-62
2022/09/22 00:34:50;;;;;;;948.80;884.75;;;;;;;13.73;65.25;102043.63;697439;28;46342;-62
2022/09/22 00:35:12;;;;;;;953.78;889.55;;;;;;;13.70;65.04;102040.22;697570;28;45232;-62
2022/09/22 00:35:36;;;;;;;955.88;891.55;;;;;;;13.70;65.13;102042.94;698089;28;23383;-62
2022/09/22 00:36:01;;;;;;;950.10;886.05;;;;;;;13.70;64.82;102042.09;695058;28;115140;-62
2022/09/22 00:36:25;;;;;;;949.72;885.65;;;;;;;13.69;65.26;102038.53;695029;28;113593;-61
2022/09/22 00:36:46;;;;;;;952.60;888.50;;;;;;;13.63;65.09;102033.75;695902;28;90785;-62
2022/09/22 00:37:08;;;;;;;952.13;887.78;;;;;;;13.68;64.93;102038.69;692652;28;66393;-63
2022/09/22 00:37:30;;;;;;;946.03;881.97;;;;;;;13.68;65.12;102041.41;694021;28;23477;-61
2022/09/22 00:37:51;;;;;;;946.33;882.47;;;;;;;13.68;64.92;102044.13;694660;28;45212;-62
2022/09/22 00:38:12;;;;;;;944.50;880.80;;;;;;;13.67;65.34;102048.69;695327;28;22435;-63
2022/09/22 00:38:33;;;;;;;944.72;880.85;;;;;;;13.67;65.16;102042.44;694444;28;46306;-61
2022/09/22 00:38:57;;;;;;;938.53;874.92;;;;;;;13.67;65.37;102045.16;695324;28;21034;-62
2022/09/22 00:39:18;;;;;;;949.45;885.35;;;;;;;13.66;65.39;102038.84;693585;28;67493;-62
2022/09/22 00:39:39;;;;;;;948.40;884.45;;;;;;;13.64;65.08;102046.31;694458;28;45251;-62
2022/09/22 00:40:01;;;;;;;944.40;880.72;;;;;;;13.65;65.13;102044.44;695285;28;23475;-61
2022/09/22 00:40:22;;;;;;;939.77;876.30;;;;;;;13.63;65.21;102038.34;695098;28;23565;-63
2022/09/22 00:40:44;;;;;;;950.03;886.13;;;;;;;13.64;64.97;102042.75;694696;28;46044;-62
2022/09/22 00:41:09;;;;;;;943.05;879.40;;;;;;;13.61;65.13;102040.38;694719;28;45261;-62
2022/09/22 00:41:35;;;;;;;945.97;882.10;;;;;;;13.62;65.13;102042.94;691988;28;115229;-62
2022/09/22 00:41:57;;;;;;;944.33;880.53;;;;;;;13.61;65.11;102043.09;691633;28;138081;-63
2022/09/22 00:42:18;;;;;;;951.00;886.95;;;;;;;13.59;65.59;102043.25;697238;28;45272;-61
2022/09/22 00:42:45;;;;;;;952.35;888.08;;;;;;;13.58;65.18;102038.00;696595;28;61681;-61
2022/09/22 00:43:13;;;;;;;949.95;886.00;;;;;;;13.58;65.52;102044.25;699110;28;886;-62
2022/09/22 00:43:35;;;;;;;944.95;881.17;;;;;;;13.58;65.16;102038.00;694986;28;113914;-61
2022/09/22 00:44:29;;;;;;;945.72;881.78;;;;;;;13.57;65.19;102044.44;696636;28;67476;-60
2022/09/22 00:44:51;;;;;;;951.78;887.70;;;;;;;13.55;65.48;102041.88;694298;28;137035;-62
2022/09/22 00:45:12;;;;;;;956.95;892.67;;;;;;;13.56;65.44;102038.16;698434;28;22387;-60
2022/09/22 00:45:33;;;;;;;955.78;891.55;;;;;;;13.55;65.36;102041.03;698300;28;21507;-62
2022/09/22 00:45:59;;;;;;;958.00;893.70;;;;;;;13.53;65.20;102035.78;698254;28;22405;-61
2022/09/22 00:46:22;;;;;;;955.22;891.03;;;;;;;13.52;65.46;102037.63;692135;28;137960;-61
2022/09/22 00:46:45;;;;;;;957.20;892.90;;;;;;;13.51;65.69;102041.38;694403;28;69245;-62
2022/09/22 00:47:16;;;;;;;950.22;885.97;;;;;;;13.51;65.35;102035.06;695447;28;69439;-62
2022/09/22 00:47:41;;;;;;;953.97;889.72;;;;;;;13.50;65.50;102042.38;693952;28;138031;-61
2022/09/22 00:48:02;;;;;;;957.03;892.60;;;;;;;13.51;65.53;102037.78;694697;28;115069;-62
2022/09/22 00:48:24;;;;;;;954.35;890.10;;;;;;;13.51;65.69;102043.22;698543;28;3488;-63
2022/09/22 00:48:47;;;;;;;948.03;883.92;;;;;;;13.50;65.67;102039.66;697439;28;46407;-62
2022/09/22 00:49:11;;;;;;;948.20;884.25;;;;;;;13.44;65.56;102023.19;696728;28;69931;-62
2022/09/22 00:49:38;;;;;;;952.10;888.00;;;;;;;13.50;65.79;102041.53;698441;28;14097;-62
2022/09/22 00:50:04;;;;;;;952.05;887.90;;;;;;;13.48;65.49;102038.13;693335;28;161736;-61
2022/09/22 00:50:26;;;;;;;946.28;882.17;;;;;;;13.48;65.77;102040.84;694185;28;136296;-62
2022/09/22 00:50:47;;;;;;;958.03;893.50;;;;;;;13.48;65.82;102038.13;698176;28;21512;-63
2022/09/22 00:51:13;;;;;;;957.35;893.05;;;;;;;13.46;65.51;102038.31;697497;28;45204;-63
2022/09/22 00:51:37;;;;;;;956.05;891.70;;;;;;;13.47;65.67;102039.13;694957;28;115147;-62
2022/09/22 00:51:59;;;;;;;950.03;885.97;;;;;;;13.45;65.44;102038.47;695202;28;92256;-63
2022/09/22 00:52:23;;;;;;;958.17;893.92;;;;;;;13.46;65.43;102032.00;697270;28;44436;-62
2022/09/22 00:52:47;;;;;;;953.80;889.80;;;;;;;13.45;65.55;102038.47;695922;28;91161;-62
2022/09/22 00:53:11;;;;;;;948.30;884.45;;;;;;;13.44;65.56;102037.59;695064;28;115073;-62
2022/09/22 00:53:33;;;;;;;957.92;893.63;;;;;;;13.44;65.58;102032.16;695771;28;92238;-63
2022/09/22 00:53:56;;;;;;;948.80;884.80;;;;;;;13.45;65.87;102038.47;698425;28;21577;-60
2022/09/22 00:54:17;;;;;;;960.78;896.33;;;;;;;13.43;65.80;102035.91;694838;28;67791;-63
2022/09/22 00:54:40;;;;;;;961.50;896.92;;;;;;;13.43;65.54;102029.63;694529;28;45404;-62
2022/09/22 00:55:09;;;;;;;958.08;893.78;;;;;;;13.43;65.96;102043.19;693765;28;67257;-62
2022/09/22 00:55:34;;;;;;;952.25;888.05;;;;;;;13.42;65.72;102031.50;691188;28;136248;-62
2022/09/22 00:55:58;;;;;;;957.13;892.83;;;;;;;13.41;65.80;102037.94;692138;28;115238;-62
2022/09/22 00:56:22;;;;;;;954.45;890.28;;;;;;;13.41;65.57;102039.78;692142;28;114912;-63
2022/09/22 00:56:47;;;;;;;953.35;889.20;;;;;;;13.40;65.72;102036.25;692370;28;114949;-63
2022/09/22 00:57:10;;;;;;;957.22;892.95;;;;;;;13.41;65.88;102035.22;693877;28;110754;-63
2022/09/22 00:57:34;;;;;;;956.00;891.75;;;;;;;13.39;65.64;102029.09;695432;28;93047;-62
2022/09/22 00:57:57;;;;;;;954.80;890.60;;;;;;;13.40;66.00;102038.97;696000;28;92805;-63
2022/09/22 00:58:21;;;;;;;952.08;887.95;;;;;;;13.40;66.07;102038.97;695675;28;92251;-63
2022/09/22 00:58:44;;;;;;;951.25;886.88;;;;;;;13.38;65.77;102032.81;695616;28;90409;-62
2022/09/22 00:59:10;;;;;;;948.33;884.28;;;;;;;13.38;65.87;102035.53;696723;28;69363;-63
2022/09/22 00:59:31;;;;;;;948.88;884.75;;;;;;;13.38;65.90;102032.81;694101;28;136399;-63
2022/09/22 00:59:54;;;;;;;952.95;888.75;;;;;;;13.39;65.98;102039.13;698345;28;23214;-63
2022/09/22 01:00:16;;;;;;;955.45;891.15;;;;;;;13.38;65.74;102032.81;696617;28;69387;-63
2022/09/22 01:00:37;;;;;;;951.40;887.17;;;;;;;13.38;65.95;102032.81;697268;28;46645;-63
2022/09/22 01:01:00;;;;;;;950.33;886.25;;;;;;;13.38;65.72;102030.09;698351;28;22402;-63
2022/09/22 01:01:21;;;;;;;957.63;893.33;;;;;;;13.38;65.63;102035.53;697296;28;46303;-63
2022/09/22 01:01:42;;;;;;;947.85;883.78;;;;;;;13.37;65.64;102033.84;697539;28;45405;-63
2022/09/22 01:02:03;;;;;;;948.95;884.95;;;;;;;13.37;65.92;102036.56;697670;28;23449;-63
2022/09/22 01:02:24;;;;;;;950.28;886.17;;;;;;;13.36;65.95;102036.72;698162;28;21549;-62
2022/09/22 01:02:48;;;;;;;950.30;886.05;;;;;;;13.35;65.64;102035.88;697933;28;21538;-62
2022/09/22 01:03:12;;;;;;;949.97;885.78;;;;;;;13.33;65.65;102030.59;695876;28;90335;-63
2022/09/22 01:03:34;;;;;;;956.63;892.35;;;;;;;13.30;66.04;102028.19;695772;28;92598;-63
2022/09/22 01:03:55;;;;;;;945.63;881.72;;;;;;;13.33;65.82;102035.19;698133;28;22409;-63
2022/09/22 01:04:17;;;;;;;954.40;890.28;;;;;;;13.33;66.23;102032.47;697164;28;45698;-63
2022/09/22 01:04:40;;;;;;;949.83;885.85;;;;;;;13.33;66.11;102036.03;697188;28;46180;-63
2022/09/22 01:05:02;;;;;;;944.95;881.15;;;;;;;13.31;66.22;102032.59;696391;28;69248;-63
2022/09/22 01:05:23;;;;;;;950.50;886.50;;;;;;;13.33;65.89;102037.91;697163;28;46281;-63
2022/09/22 01:05:47;;;;;;;954.78;890.58;;;;;;;13.32;66.14;102037.03;698097;28;22404;-63
2022/09/22 01:06:13;;;;;;;950.10;886.05;;;;;;;13.31;65.93;102023.63;695644;28;91309;-63
2022/09/22 01:06:35;;;;;;;954.63;890.30;;;;;;;13.31;66.26;102035.31;693889;28;138158;-63
2022/09/22 01:06:57;;;;;;;964.10;899.30;;;;;;;13.28;66.05;102024.78;696239;28;44373;-62
2022/09/22 01:07:19;;;;;;;966.70;901.63;;;;;;;13.30;66.19;102030.06;697175;28;44368;-62
2022/09/22 01:07:42;;;;;;;957.70;893.20;;;;;;;13.28;66.18;102027.50;697486;28;46288;-65
2022/09/22 01:08:03;;;;;;;948.08;883.97;;;;;;;13.27;65.96;102033.94;696668;28;67467;-63
2022/09/22 01:08:25;;;;;;;954.92;890.63;;;;;;;13.28;66.02;102032.94;697806;28;22379;-63
2022/09/22 01:08:46;;;;;;;955.90;891.53;;;;;;;13.27;65.90;102031.22;697304;28;45228;-63
2022/09/22 01:09:07;;;;;;;954.17;889.97;;;;;;;13.26;66.23;102036.81;698294;28;22400;-62
2022/09/22 01:09:33;;;;;;;948.45;884.45;;;;;;;13.25;66.22;102030.53;698529;28;15047;-62
2022/09/22 01:09:54;;;;;;;943.95;880.08;;;;;;;13.24;66.06;102039.69;697594;28;44137;-62
2022/09/22 01:10:15;;;;;;;950.90;886.72;;;;;;;13.24;66.02;102039.69;698288;28;22404;-63
2022/09/22 01:10:37;;;;;;;957.88;893.45;;;;;;;13.24;66.35;102031.53;697710;28;46310;-63
2022/09/22 01:10:59;;;;;;;954.00;889.75;;;;;;;13.19;66.12;102024.94;698086;28;21597;-61
2022/09/22 01:11:21;;;;;;;951.47;887.35;;;;;;;13.22;66.56;102033.56;697427;28;46319;-62
2022/09/22 01:11:48;;;;;;;948.38;884.30;;;;;;;13.21;66.30;102029.16;693520;28;138647;-62
2022/09/22 01:12:10;;;;;;;947.20;883.30;;;;;;;13.21;66.19;102031.03;694725;28;46307;-62
2022/09/22 01:12:31;;;;;;;938.90;875.08;;;;;;;13.22;66.48;102027.31;695226;28;22401;-62
2022/09/22 01:12:58;;;;;;;952.53;888.33;;;;;;;13.20;66.39;102027.47;695557;28;23375;-61
2022/09/22 01:13:26;;;;;;;953.40;889.17;;;;;;;13.18;66.64;102032.19;691299;28;137722;-62
2022/09/22 01:14:03;;;;;;;954.42;890.08;;;;;;;13.20;66.67;102034.75;690696;28;160933;-62
2022/09/22 01:14:32;;;;;;;949.70;885.67;;;;;;;13.19;66.60;102033.06;691309;28;137689;-61
2022/09/22 01:15:04;;;;;;;956.17;891.90;;;;;;;13.19;66.63;102030.34;691838;28;129930;-61
2022/09/22 01:15:32;;;;;;;954.88;890.58;;;;;;;13.17;66.62;102027.81;694050;28;61297;-63
2022/09/22 01:16:05;;;;;;;954.53;890.20;;;;;;;13.19;66.33;102030.34;688036;28;160961;-63
2022/09/22 01:16:35;;;;;;;950.33;886.30;;;;;;;13.18;66.30;102026.78;690230;28;135662;-61
2022/09/22 01:17:04;;;;;;;951.33;887.20;;;;;;;13.17;66.40;102022.38;690053;28;137761;-62
2022/09/22 01:17:33;;;;;;;951.65;887.53;;;;;;;13.17;66.66;102025.09;690941;28;137897;-63
2022/09/22 01:18:07;;;;;;;950.80;886.60;;;;;;;13.16;66.48;102029.69;691865;28;117734;-63
2022/09/22 01:18:37;;;;;;;951.78;887.53;;;;;;;13.19;66.71;102027.63;688499;28;137701;-62
2022/09/22 01:19:39;;;;;;;953.20;888.95;;;;;;;13.19;66.75;102025.75;688892;28;136005;-61
2022/09/22 01:20:24;;;;;;;962.05;897.55;;;;;;;13.18;66.54;102021.34;688665;28;138091;-61
2022/09/22 01:21:13;;;;;;;941.28;877.45;;;;;;;13.17;66.71;102025.09;688618;28;139319;-62
2022/09/22 01:21:40;;;;;;;964.35;899.67;;;;;;;13.17;66.85;102027.81;689657;28;161052;-61
2022/09/22 01:22:14;;;;;;;952.78;888.60;;;;;;;13.15;66.29;102025.25;692671;28;138015;-61
2022/09/22 01:23:08;;;;;;;952.42;888.22;;;;;;;13.15;66.48;102030.69;694209;28;137781;-61
2022/09/22 01:23:46;;;;;;;947.75;883.65;;;;;;;13.13;66.47;102027.28;693825;28;137426;-62
2022/09/22 01:24:34;;;;;;;956.42;892.13;;;;;;;13.12;66.42;102025.56;694191;28;137647;-61
2022/09/22 01:25:12;;;;;;;962.42;897.88;;;;;;;13.12;66.83;102022.03;694284;28;138158;-62
2022/09/22 01:26:02;;;;;;;956.72;892.33;;;;;;;13.11;66.67;102026.56;693971;28;138497;-62
2022/09/22 01:26:51;;;;;;;962.40;897.88;;;;;;;13.12;66.52;102025.56;690856;28;161324;-62
2022/09/22 01:27:52;;;;;;;954.83;890.25;;;;;;;13.12;66.79;102022.88;689446;28;152955;-61
2022/09/22 01:28:26;;;;;;;962.45;897.95;;;;;;;13.12;66.62;102022.88;690527;28;137713;-60
2022/09/22 01:29:24;;;;;;;964.35;899.72;;;;;;;13.13;66.65;102023.69;693899;28;137417;-61
2022/09/22 01:30:20;;;;;;;953.55;889.35;;;;;;;13.13;66.79;102032.72;693258;28;137746;-62
2022/09/22 01:30:43;;;;;;;959.05;894.70;;;;;;;13.14;66.56;102025.41;691422;28;138634;-62
2022/09/22 01:31:07;;;;;;;960.42;896.00;;;;;;;13.14;66.35;102030.84;693098;28;92271;-60
2022/09/22 01:31:31;;;;;;;962.17;897.65;;;;;;;13.13;66.37;102029.13;693692;28;69390;-61
2022/09/22 01:31:57;;;;;;;949.40;885.28;;;;;;;13.12;66.60;102031.00;691477;28;113340;-61
2022/09/22 01:32:26;;;;;;;953.38;889.20;;;;;;;13.13;66.64;102026.41;692214;28;115086;-63
2022/09/22 01:32:59;;;;;;;959.78;895.22;;;;;;;13.10;66.67;102022.19;691579;28;138303;-61
2022/09/22 01:33:28;;;;;;;945.80;881.88;;;;;;;13.09;66.53;102025.91;694095;28;135956;-61
2022/09/22 01:33:54;;;;;;;950.38;886.28;;;;;;;13.09;66.77;102028.63;694196;28;136036;-61
2022/09/22 01:34:20;;;;;;;959.25;894.85;;;;;;;13.08;66.48;102017.94;694993;28;115079;-61
2022/09/22 01:34:51;;;;;;;957.28;892.75;;;;;;;13.07;66.66;102019.78;696673;28;61431;-61
2022/09/22 01:35:18;;;;;;;955.80;891.55;;;;;;;13.06;66.52;102022.66;694120;28;138206;-63
2022/09/22 01:35:47;;;;;;;947.08;882.97;;;;;;;13.03;66.75;102020.28;694114;28;138027;-62
2022/09/22 01:36:22;;;;;;;952.85;888.70;;;;;;;13.02;66.84;102022.13;694071;28;136204;-62
2022/09/22 01:36:48;;;;;;;957.95;893.50;;;;;;;13.02;66.48;102026.72;694168;28;137600;-62
2022/09/22 01:37:14;;;;;;;951.13;886.65;;;;;;;13.01;66.48;102025.88;692137;28;157844;-62
2022/09/22 01:37:41;;;;;;;960.05;895.42;;;;;;;13.00;66.66;102026.03;694180;28;136822;-62
2022/09/22 01:38:07;;;;;;;953.10;888.90;;;;;;;13.00;66.87;102020.59;694075;28;137918;-62
2022/09/22 01:38:33;;;;;;;960.75;896.30;;;;;;;12.99;66.78;102022.44;694080;28;136439;-62
2022/09/22 01:39:01;;;;;;;957.47;893.15;;;;;;;12.98;66.89;102020.75;695012;28;113639;-63
2022/09/22 01:39:25;;;;;;;963.58;898.92;;;;;;;12.97;67.21;102025.31;696129;28;74976;-62
2022/09/22 01:39:51;;;;;;;959.10;894.75;;;;;;;12.97;66.75;102028.03;696055;28;90864;-62
2022/09/22 01:40:14;;;;;;;958.40;894.10;;;;;;;12.96;67.06;102026.34;694761;28;113331;-61
2022/09/22 01:40:41;;;;;;;954.67;890.47;;;;;;;12.96;67.09;102026.34;695749;28;91074;-62
2022/09/22 01:41:06;;;;;;;961.97;897.47;;;;;;;12.95;67.28;102024.63;694091;28;136352;-62
2022/09/22 01:41:41;;;;;;;957.33;893.00;;;;;;;12.94;67.15;102025.63;695648;28;92305;-62
2022/09/22 01:42:07;;;;;;;948.53;884.40;;;;;;;12.95;67.06;102023.78;693420;28;136035;-62
2022/09/22 01:42:35;;;;;;;955.22;890.78;;;;;;;12.96;67.39;102023.63;693994;28;137885;-62
2022/09/22 01:43:03;;;;;;;944.83;880.75;;;;;;;12.96;67.23;102022.75;694160;28;137664;-63
2022/09/22 01:43:34;;;;;;;944.88;880.88;;;;;;;12.93;67.09;102021.25;694305;28;137521;-60
2022/09/22 01:43:58;;;;;;;950.33;886.22;;;;;;;12.96;66.98;102025.47;694233;28;136040;-62
2022/09/22 01:44:24;;;;;;;949.40;885.22;;;;;;;12.92;66.92;102016.81;695491;28;92252;-63
2022/09/22 01:44:49;;;;;;;955.97;891.63;;;;;;;12.96;67.48;102030.91;694266;28;136304;-62
2022/09/22 01:45:15;;;;;;;949.67;885.60;;;;;;;12.92;67.40;102019.53;695060;28;113657;-63
2022/09/22 01:45:39;;;;;;;961.70;897.15;;;;;;;12.93;67.48;102026.66;694104;28;138159;-63
2022/09/22 01:46:04;;;;;;;959.40;894.97;;;;;;;12.93;67.20;102021.25;695716;28;92397;-62
2022/09/22 01:46:28;;;;;;;954.30;890.00;;;;;;;12.93;67.34;102031.22;694727;28;114520;-61
2022/09/22 01:46:54;;;;;;;955.50;891.17;;;;;;;12.94;67.54;102024.78;694693;28;93107;-63
2022/09/22 01:47:18;;;;;;;961.60;896.80;;;;;;;12.90;67.53;102016.16;691197;28;137933;-62
2022/09/22 01:47:43;;;;;;;955.20;890.78;;;;;;;12.95;67.17;102029.22;689401;28;115022;-62
2022/09/22 01:48:09;;;;;;;952.63;888.40;;;;;;;12.94;67.65;102016.66;690202;28;92232;-62
2022/09/22 01:48:33;;;;;;;958.35;893.80;;;;;;;12.94;67.31;102022.94;688247;28;136332;-62
2022/09/22 01:48:56;;;;;;;949.38;885.30;;;;;;;12.93;67.49;102021.25;690223;28;92188;-62
2022/09/22 01:49:18;;;;;;;933.75;870.17;;;;;;;12.94;67.66;102022.09;690822;28;69239;-62
2022/09/22 01:49:42;;;;;;;932.38;868.85;;;;;;;12.94;67.27;102022.94;691875;28;44372;-62
2022/09/22 01:50:07;;;;;;;934.22;870.70;;;;;;;12.95;67.28;102023.78;690287;28;92048;-62
2022/09/22 01:50:31;;;;;;;946.22;882.28;;;;;;;12.95;67.51;102021.94;688466;28;137791;-62
2022/09/22 01:50:56;;;;;;;939.30;875.67;;;;;;;12.95;67.41;102024.63;692334;28;92396;-62
2022/09/22 01:51:20;;;;;;;924.80;861.67;;;;;;;12.96;67.38;102025.47;693214;28;92220;-62
2022/09/22 01:51:48;;;;;;;939.28;875.65;;;;;;;12.95;67.29;102023.78;694079;28;61425;-62
2022/09/22 01:52:12;;;;;;;946.63;882.65;;;;;;;12.96;67.23;102020.94;690268;28;157622;-62
2022/09/22 01:52:34;;;;;;;946.45;882.45;;;;;;;12.96;67.71;102023.63;691953;28;115031;-63